sensor_id;sensor_type;location;lat;lon;timestamp;pressure;altitude;pressure_sealevel;temperature;humidity
77110;BME280;66062;52.464;16.922;2023-04-10T00:01:05;101599.72;;;5.83;100.00
77110;BME280;66062;52.464;16.922;2023-04-10T00:03:31;101589.75;;;5.88;100.00
77110;BME280;66062;52.464;16.922;2023-04-10T00:05:57;101597.16;;;5.82;100.00
77110;BME280;66062;52.464;16.922;2023-04-10T00:08:23;101597.72;;;5.88;100.00
77110;BME280;66062;52.464;16.922;2023-04-10T00:10:49;101587.56;;;5.79;100.00
77110;BME280;66062;52.464;16.922;2023-04-10T00:13:15;101598.34;;;5.76;100.00
77110;BME280;66062;52.464;16.922;2023-04-10T00:15:41;101598.34;;;5.76;100.00
77110;BME280;66062;52.464;16.922;2023-04-10T00:18:07;101595.09;;;5.71;100.00
77110;BME280;66062;52.464;16.922;2023-04-10T00:20:32;101588.94;;;5.71;100.00
77110;BME280;66062;52.464;16.922;2023-04-10T00:22:58;101596.97;;;5.69;100.00
77110;BME280;66062;52.464;16.922;2023-04-10T00:25:23;101597.81;;;5.70;100.00
77110;BME280;66062;52.464;16.922;2023-04-10T00:27:49;101594.25;;;5.71;100.00
77110;BME280;66062;52.464;16.922;2023-04-10T00:30:15;101589.97;;;5.68;100.00
77110;BME280;66062;52.464;16.922;2023-04-10T00:32:40;101588.09;;;5.70;100.00
77110;BME280;66062;52.464;16.922;2023-04-10T00:35:07;101582.44;;;5.76;100.00
77110;BME280;66062;52.464;16.922;2023-04-10T00:37:33;101579.38;;;5.68;100.00
77110;BME280;66062;52.464;16.922;2023-04-10T00:39:58;101590.13;;;5.65;100.00
77110;BME280;66062;52.464;16.922;2023-04-10T00:42:24;101588.25;;;5.51;100.00
77110;BME280;66062;52.464;16.922;2023-04-10T00:44:50;101585.69;;;5.50;100.00
77110;BME280;66062;52.464;16.922;2023-04-10T00:47:15;101576.63;;;5.38;100.00
77110;BME280;66062;52.464;16.922;2023-04-10T00:49:42;101569.13;;;5.46;100.00
77110;BME280;66062;52.464;16.922;2023-04-10T00:52:08;101578.16;;;5.42;100.00
77110;BME280;66062;52.464;16.922;2023-04-10T00:54:34;101579.34;;;5.37;100.00
77110;BME280;66062;52.464;16.922;2023-04-10T00:57:01;101575.78;;;5.38;100.00
77110;BME280;66062;52.464;16.922;2023-04-10T00:59:27;101580.97;;;5.39;100.00
77110;BME280;66062;52.464;16.922;2023-04-10T01:01:53;101573.28;;;5.35;100.00
77110;BME280;66062;52.464;16.922;2023-04-10T01:04:19;101575.25;;;5.31;100.00
77110;BME280;66062;52.464;16.922;2023-04-10T01:07:10;101568.56;;;5.24;100.00
77110;BME280;66062;52.464;16.922;2023-04-10T01:09:57;101574.03;;;5.21;100.00
77110;BME280;66062;52.464;16.922;2023-04-10T01:12:57;101575.03;;;5.18;100.00
77110;BME280;66062;52.464;16.922;2023-04-10T01:15:41;101576.75;;;5.20;100.00
77110;BME280;66062;52.464;16.922;2023-04-10T01:20:40;101583.03;;;5.01;100.00
77110;BME280;66062;52.464;16.922;2023-04-10T01:26:03;101587.69;;;4.96;100.00
77110;BME280;66062;52.464;16.922;2023-04-10T01:28:56;101591.44;;;4.92;100.00
77110;BME280;66062;52.464;16.922;2023-04-10T01:31:40;101595.63;;;4.96;100.00
77110;BME280;66062;52.464;16.922;2023-04-10T01:34:09;101601.53;;;5.01;100.00
77110;BME280;66062;52.464;16.922;2023-04-10T01:37:00;101595.03;;;4.91;100.00
77110;BME280;66062;52.464;16.922;2023-04-10T01:39:27;101593.53;;;4.86;100.00
77110;BME280;66062;52.464;16.922;2023-04-10T01:41:55;101595.41;;;4.84;100.00
77110;BME280;66062;52.464;16.922;2023-04-10T01:44:28;101596.00;;;4.89;100.00
77110;BME280;66062;52.464;16.922;2023-04-10T01:46:55;101595.78;;;4.93;100.00
77110;BME280;66062;52.464;16.922;2023-04-10T01:49:24;101595.94;;;4.90;100.00
77110;BME280;66062;52.464;16.922;2023-04-10T01:51:50;101601.16;;;4.92;100.00
77110;BME280;66062;52.464;16.922;2023-04-10T01:54:18;101595.72;;;4.95;100.00
77110;BME280;66062;52.464;16.922;2023-04-10T01:56:45;101596.88;;;4.89;100.00
77110;BME280;66062;52.464;16.922;2023-04-10T01:59:10;101607.31;;;4.92;100.00
77110;BME280;66062;52.464;16.922;2023-04-10T02:01:36;101599.50;;;5.06;100.00
77110;BME280;66062;52.464;16.922;2023-04-10T02:04:01;101600.72;;;5.16;100.00
77110;BME280;66062;52.464;16.922;2023-04-10T02:07:01;101597.19;;;5.00;100.00
77110;BME280;66062;52.464;16.922;2023-04-10T02:12:05;101600.00;;;4.80;100.00
77110;BME280;66062;52.464;16.922;2023-04-10T02:14:36;101605.34;;;4.79;100.00
77110;BME280;66062;52.464;16.922;2023-04-10T02:17:04;101591.69;;;4.70;100.00
77110;BME280;66062;52.464;16.922;2023-04-10T02:19:31;101606.00;;;4.66;100.00
77110;BME280;66062;52.464;16.922;2023-04-10T02:21:57;101601.38;;;4.53;100.00
77110;BME280;66062;52.464;16.922;2023-04-10T02:24:23;101606.91;;;4.48;100.00
77110;BME280;66062;52.464;16.922;2023-04-10T02:26:51;101606.25;;;4.62;100.00
77110;BME280;66062;52.464;16.922;2023-04-10T02:29:18;101600.53;;;4.52;100.00
77110;BME280;66062;52.464;16.922;2023-04-10T02:31:46;101611.59;;;4.60;100.00
77110;BME280;66062;52.464;16.922;2023-04-10T02:34:14;101612.91;;;4.69;100.00
77110;BME280;66062;52.464;16.922;2023-04-10T02:36:40;101613.84;;;4.68;100.00
77110;BME280;66062;52.464;16.922;2023-04-10T02:39:08;101603.44;;;4.82;100.00
77110;BME280;66062;52.464;16.922;2023-04-10T02:41:34;101612.91;;;4.86;100.00
77110;BME280;66062;52.464;16.922;2023-04-10T02:43:59;101605.91;;;4.85;100.00
77110;BME280;66062;52.464;16.922;2023-04-10T02:46:25;101605.28;;;4.97;100.00
77110;BME280;66062;52.464;16.922;2023-04-10T02:48:54;101600.63;;;5.02;100.00
77110;BME280;66062;52.464;16.922;2023-04-10T02:51:19;101603.47;;;4.98;100.00
77110;BME280;66062;52.464;16.922;2023-04-10T02:53:45;101604.19;;;4.84;100.00
77110;BME280;66062;52.464;16.922;2023-04-10T02:56:14;101605.03;;;4.67;100.00
77110;BME280;66062;52.464;16.922;2023-04-10T02:58:40;101611.03;;;4.54;100.00
77110;BME280;66062;52.464;16.922;2023-04-10T03:01:05;101595.47;;;4.30;100.00
77110;BME280;66062;52.464;16.922;2023-04-10T03:03:31;101595.38;;;4.32;100.00
77110;BME280;66062;52.464;16.922;2023-04-10T03:05:57;101594.56;;;4.32;100.00
77110;BME280;66062;52.464;16.922;2023-04-10T03:08:22;101596.47;;;4.28;100.00
77110;BME280;66062;52.464;16.922;2023-04-10T03:10:48;101602.06;;;4.22;100.00
77110;BME280;66062;52.464;16.922;2023-04-10T03:13:14;101598.66;;;4.20;100.00
77110;BME280;66062;52.464;16.922;2023-04-10T03:15:40;101607.56;;;4.17;100.00
77110;BME280;66062;52.464;16.922;2023-04-10T03:18:05;101604.63;;;4.06;100.00
77110;BME280;66062;52.464;16.922;2023-04-10T03:20:32;101607.16;;;4.08;100.00
77110;BME280;66062;52.464;16.922;2023-04-10T03:23:00;101610.09;;;4.02;100.00
77110;BME280;66062;52.464;16.922;2023-04-10T03:25:27;101604.28;;;3.95;100.00
77110;BME280;66062;52.464;16.922;2023-04-10T03:27:52;101608.00;;;3.91;100.00
77110;BME280;66062;52.464;16.922;2023-04-10T03:30:18;101616.84;;;3.90;100.00
77110;BME280;66062;52.464;16.922;2023-04-10T03:32:43;101610.81;;;3.86;100.00
77110;BME280;66062;52.464;16.922;2023-04-10T03:35:09;101615.25;;;3.86;100.00
77110;BME280;66062;52.464;16.922;2023-04-10T03:37:35;101615.13;;;3.89;100.00
77110;BME280;66062;52.464;16.922;2023-04-10T03:40:01;101611.56;;;3.90;100.00
77110;BME280;66062;52.464;16.922;2023-04-10T03:42:26;101605.47;;;3.88;100.00
77110;BME280;66062;52.464;16.922;2023-04-10T03:44:52;101605.69;;;3.83;100.00
77110;BME280;66062;52.464;16.922;2023-04-10T03:47:17;101607.53;;;3.81;100.00
77110;BME280;66062;52.464;16.922;2023-04-10T03:49:43;101606.69;;;3.81;100.00
77110;BME280;66062;52.464;16.922;2023-04-10T03:52:08;101608.06;;;3.90;100.00
77110;BME280;66062;52.464;16.922;2023-04-10T03:54:33;101603.13;;;3.82;100.00
77110;BME280;66062;52.464;16.922;2023-04-10T03:56:59;101607.63;;;3.80;100.00
77110;BME280;66062;52.464;16.922;2023-04-10T03:59:25;101607.75;;;3.77;100.00
77110;BME280;66062;52.464;16.922;2023-04-10T04:01:51;101610.41;;;3.77;100.00
77110;BME280;66062;52.464;16.922;2023-04-10T04:04:17;101609.31;;;3.81;100.00
77110;BME280;66062;52.464;16.922;2023-04-10T04:06:42;101610.69;;;3.71;100.00
77110;BME280;66062;52.464;16.922;2023-04-10T04:09:08;101603.78;;;3.68;100.00
77110;BME280;66062;52.464;16.922;2023-04-10T04:11:33;101606.03;;;3.76;100.00
77110;BME280;66062;52.464;16.922;2023-04-10T04:13:59;101601.56;;;3.78;100.00
77110;BME280;66062;52.464;16.922;2023-04-10T04:16:24;101614.56;;;3.64;100.00
77110;BME280;66062;52.464;16.922;2023-04-10T04:18:50;101607.28;;;3.69;100.00
77110;BME280;66062;52.464;16.922;2023-04-10T04:21:15;101608.75;;;3.56;100.00
77110;BME280;66062;52.464;16.922;2023-04-10T04:23:40;101616.13;;;3.49;100.00
77110;BME280;66062;52.464;16.922;2023-04-10T04:26:06;101619.47;;;3.53;100.00
77110;BME280;66062;52.464;16.922;2023-04-10T04:28:31;101612.84;;;3.63;100.00
77110;BME280;66062;52.464;16.922;2023-04-10T04:30:57;101610.25;;;3.61;100.00
77110;BME280;66062;52.464;16.922;2023-04-10T04:33:22;101616.06;;;3.69;100.00
77110;BME280;66062;52.464;16.922;2023-04-10T04:35:48;101614.13;;;3.73;100.00
77110;BME280;66062;52.464;16.922;2023-04-10T04:38:13;101613.13;;;3.75;100.00
77110;BME280;66062;52.464;16.922;2023-04-10T04:40:40;101622.25;;;3.68;100.00
77110;BME280;66062;52.464;16.922;2023-04-10T04:43:06;101615.69;;;3.77;100.00
77110;BME280;66062;52.464;16.922;2023-04-10T04:45:31;101628.81;;;3.78;100.00
77110;BME280;66062;52.464;16.922;2023-04-10T04:47:57;101618.84;;;3.85;100.00
77110;BME280;66062;52.464;16.922;2023-04-10T04:50:22;101626.75;;;3.85;100.00
77110;BME280;66062;52.464;16.922;2023-04-10T04:52:48;101633.72;;;3.86;100.00
77110;BME280;66062;52.464;16.922;2023-04-10T04:55:13;101634.25;;;3.75;100.00
77110;BME280;66062;52.464;16.922;2023-04-10T04:57:39;101632.88;;;3.67;100.00
77110;BME280;66062;52.464;16.922;2023-04-10T05:00:05;101641.00;;;3.81;100.00
77110;BME280;66062;52.464;16.922;2023-04-10T05:02:31;101645.78;;;3.92;100.00
77110;BME280;66062;52.464;16.922;2023-04-10T05:04:56;101645.34;;;4.19;100.00
77110;BME280;66062;52.464;16.922;2023-04-10T05:07:21;101642.13;;;4.32;100.00
77110;BME280;66062;52.464;16.922;2023-04-10T05:09:47;101654.09;;;4.39;100.00
77110;BME280;66062;52.464;16.922;2023-04-10T05:12:12;101652.19;;;4.23;100.00
77110;BME280;66062;52.464;16.922;2023-04-10T05:14:38;101659.44;;;4.01;100.00
77110;BME280;66062;52.464;16.922;2023-04-10T05:17:03;101655.28;;;4.14;100.00
77110;BME280;66062;52.464;16.922;2023-04-10T05:19:28;101663.19;;;4.14;100.00
77110;BME280;66062;52.464;16.922;2023-04-10T05:21:54;101663.25;;;4.32;100.00
77110;BME280;66062;52.464;16.922;2023-04-10T05:24:19;101664.19;;;4.48;100.00
77110;BME280;66062;52.464;16.922;2023-04-10T05:26:45;101655.13;;;4.53;100.00
77110;BME280;66062;52.464;16.922;2023-04-10T05:29:11;101656.38;;;4.63;100.00
77110;BME280;66062;52.464;16.922;2023-04-10T05:31:37;101658.00;;;4.83;100.00
77110;BME280;66062;52.464;16.922;2023-04-10T05:34:02;101666.34;;;4.76;100.00
77110;BME280;66062;52.464;16.922;2023-04-10T05:36:28;101672.63;;;4.56;100.00
77110;BME280;66062;52.464;16.922;2023-04-10T05:38:53;101679.47;;;4.60;100.00
77110;BME280;66062;52.464;16.922;2023-04-10T05:41:19;101672.00;;;5.20;100.00
77110;BME280;66062;52.464;16.922;2023-04-10T05:43:45;101678.41;;;5.81;100.00
77110;BME280;66062;52.464;16.922;2023-04-10T05:46:10;101675.81;;;6.13;100.00
77110;BME280;66062;52.464;16.922;2023-04-10T05:48:36;101681.84;;;6.62;100.00
77110;BME280;66062;52.464;16.922;2023-04-10T05:51:01;101670.69;;;6.25;100.00
77110;BME280;66062;52.464;16.922;2023-04-10T05:53:28;101678.88;;;5.89;100.00
77110;BME280;66062;52.464;16.922;2023-04-10T05:55:59;101671.97;;;5.87;100.00
77110;BME280;66062;52.464;16.922;2023-04-10T05:58:26;101679.97;;;6.94;100.00
77110;BME280;66062;52.464;16.922;2023-04-10T06:00:52;101676.81;;;6.57;98.90
77110;BME280;66062;52.464;16.922;2023-04-10T06:03:17;101671.59;;;6.56;100.00
77110;BME280;66062;52.464;16.922;2023-04-10T06:05:44;101675.56;;;6.78;97.61
77110;BME280;66062;52.464;16.922;2023-04-10T06:08:09;101673.69;;;7.10;95.36
77110;BME280;66062;52.464;16.922;2023-04-10T06:10:35;101664.25;;;8.18;88.95
77110;BME280;66062;52.464;16.922;2023-04-10T06:13:00;101673.25;;;7.46;89.32
77110;BME280;66062;52.464;16.922;2023-04-10T06:15:26;101667.28;;;8.26;88.77
77110;BME280;66062;52.464;16.922;2023-04-10T06:17:51;101669.94;;;9.19;83.67
77110;BME280;66062;52.464;16.922;2023-04-10T06:20:18;101670.31;;;8.34;84.65
77110;BME280;66062;52.464;16.922;2023-04-10T06:22:44;101672.13;;;8.61;83.94
77110;BME280;66062;52.464;16.922;2023-04-10T06:25:09;101673.56;;;9.43;80.02
77110;BME280;66062;52.464;16.922;2023-04-10T06:27:34;101668.56;;;9.39;76.29
77110;BME280;66062;52.464;16.922;2023-04-10T06:30:00;101661.34;;;11.55;67.22
77110;BME280;66062;52.464;16.922;2023-04-10T06:32:26;101660.03;;;11.72;68.06
77110;BME280;66062;52.464;16.922;2023-04-10T06:34:52;101660.59;;;12.42;66.53
77110;BME280;66062;52.464;16.922;2023-04-10T06:37:29;101655.47;;;14.14;59.02
77110;BME280;66062;52.464;16.922;2023-04-10T06:42:28;101651.28;;;14.31;57.36
77110;BME280;66062;52.464;16.922;2023-04-10T06:44:53;101647.78;;;16.73;49.22
77110;BME280;66062;52.464;16.922;2023-04-10T06:47:19;101645.88;;;16.56;49.15
77110;BME280;66062;52.464;16.922;2023-04-10T06:49:44;101648.44;;;15.58;49.89
77110;BME280;66062;52.464;16.922;2023-04-10T06:52:13;101653.72;;;16.59;47.94
77110;BME280;66062;52.464;16.922;2023-04-10T06:54:38;101650.97;;;13.75;55.58
77110;BME280;66062;52.464;16.922;2023-04-10T06:57:05;101642.88;;;14.74;52.76
77110;BME280;66062;52.464;16.922;2023-04-10T06:59:31;101651.34;;;16.29;48.16
77110;BME280;66062;52.464;16.922;2023-04-10T07:02:01;101657.63;;;15.92;49.03
77110;BME280;66062;52.464;16.922;2023-04-10T07:04:29;101660.91;;;12.80;58.93
77110;BME280;66062;52.464;16.922;2023-04-10T07:06:55;101660.97;;;12.26;61.55
77110;BME280;66062;52.464;16.922;2023-04-10T07:09:20;101657.25;;;13.55;58.48
77110;BME280;66062;52.464;16.922;2023-04-10T07:11:46;101652.81;;;13.75;57.45
77110;BME280;66062;52.464;16.922;2023-04-10T07:14:11;101656.41;;;13.13;58.70
77110;BME280;66062;52.464;16.922;2023-04-10T07:16:36;101655.00;;;15.17;52.88
77110;BME280;66062;52.464;16.922;2023-04-10T07:19:05;101652.00;;;17.11;48.79
77110;BME280;66062;52.464;16.922;2023-04-10T07:21:30;101657.47;;;18.05;46.19
77110;BME280;66062;52.464;16.922;2023-04-10T07:23:57;101665.22;;;15.13;53.83
77110;BME280;66062;52.464;16.922;2023-04-10T07:26:22;101669.88;;;12.91;60.44
77110;BME280;66062;52.464;16.922;2023-04-10T07:28:50;101660.28;;;16.02;53.08
77110;BME280;66062;52.464;16.922;2023-04-10T07:31:15;101658.91;;;16.43;50.64
77110;BME280;66062;52.464;16.922;2023-04-10T07:33:46;101654.28;;;18.09;47.67
77110;BME280;66062;52.464;16.922;2023-04-10T07:36:12;101652.94;;;16.66;49.80
77110;BME280;66062;52.464;16.922;2023-04-10T07:38:38;101646.06;;;17.33;48.19
77110;BME280;66062;52.464;16.922;2023-04-10T07:41:04;101642.09;;;19.60;42.78
77110;BME280;66062;52.464;16.922;2023-04-10T07:43:30;101644.38;;;18.26;45.42
77110;BME280;66062;52.464;16.922;2023-04-10T07:45:55;101644.97;;;17.44;48.18
77110;BME280;66062;52.464;16.922;2023-04-10T07:48:21;101640.56;;;20.44;41.94
77110;BME280;66062;52.464;16.922;2023-04-10T07:50:47;101634.09;;;22.09;37.77
77110;BME280;66062;52.464;16.922;2023-04-10T07:53:13;101625.56;;;22.91;36.14
77110;BME280;66062;52.464;16.922;2023-04-10T07:55:42;101630.34;;;20.77;40.52
77110;BME280;66062;52.464;16.922;2023-04-10T07:58:09;101638.13;;;16.35;50.57
77110;BME280;66062;52.464;16.922;2023-04-10T08:00:34;101633.91;;;18.39;47.69
77110;BME280;66062;52.464;16.922;2023-04-10T08:03:00;101638.75;;;18.61;46.61
77110;BME280;66062;52.464;16.922;2023-04-10T08:05:30;101640.63;;;20.59;42.63
77110;BME280;66062;52.464;16.922;2023-04-10T08:07:55;101630.97;;;19.15;44.16
77110;BME280;66062;52.464;16.922;2023-04-10T08:10:21;101631.28;;;19.52;46.85
77110;BME280;66062;52.464;16.922;2023-04-10T08:12:46;101632.28;;;19.51;42.71
77110;BME280;66062;52.464;16.922;2023-04-10T08:15:11;101625.56;;;17.66;50.40
77110;BME280;66062;52.464;16.922;2023-04-10T08:17:37;101627.19;;;19.40;45.18
77110;BME280;66062;52.464;16.922;2023-04-10T08:20:03;101627.25;;;19.16;45.73
77110;BME280;66062;52.464;16.922;2023-04-10T08:22:29;101611.53;;;21.13;43.04
77110;BME280;66062;52.464;16.922;2023-04-10T08:24:54;101611.88;;;22.06;40.62
77110;BME280;66062;52.464;16.922;2023-04-10T08:27:20;101612.69;;;19.49;45.37
77110;BME280;66062;52.464;16.922;2023-04-10T08:29:45;101605.38;;;22.22;40.73
77110;BME280;66062;52.464;16.922;2023-04-10T08:32:11;101604.53;;;23.55;36.64
77110;BME280;66062;52.464;16.922;2023-04-10T08:34:36;101604.38;;;23.42;36.89
77110;BME280;66062;52.464;16.922;2023-04-10T08:37:05;101599.00;;;21.12;40.40
77110;BME280;66062;52.464;16.922;2023-04-10T08:39:35;101601.09;;;21.39;41.33
77110;BME280;66062;52.464;16.922;2023-04-10T08:42:01;101600.31;;;23.25;37.19
77110;BME280;66062;52.464;16.922;2023-04-10T08:44:27;101596.13;;;24.52;35.48
77110;BME280;66062;52.464;16.922;2023-04-10T08:46:57;101602.22;;;22.75;38.86
77110;BME280;66062;52.464;16.922;2023-04-10T08:49:30;101599.81;;;24.24;35.10
77110;BME280;66062;52.464;16.922;2023-04-10T08:52:00;101593.63;;;24.77;34.69
77110;BME280;66062;52.464;16.922;2023-04-10T08:54:28;101596.47;;;26.31;31.05
77110;BME280;66062;52.464;16.922;2023-04-10T08:56:55;101594.00;;;22.54;36.67
77110;BME280;66062;52.464;16.922;2023-04-10T08:59:22;101605.78;;;22.61;37.52
77110;BME280;66062;52.464;16.922;2023-04-10T09:01:48;101586.69;;;23.25;38.21
77110;BME280;66062;52.464;16.922;2023-04-10T09:04:14;101582.34;;;22.60;40.42
77110;BME280;66062;52.464;16.922;2023-04-10T09:06:43;101581.28;;;24.13;36.26
77110;BME280;66062;52.464;16.922;2023-04-10T09:09:08;101578.53;;;25.91;32.17
77110;BME280;66062;52.464;16.922;2023-04-10T09:14:31;101588.19;;;21.56;41.81
77110;BME280;66062;52.464;16.922;2023-04-10T09:17:16;101582.34;;;21.15;42.18
77110;BME280;66062;52.464;16.922;2023-04-10T09:19:44;101573.19;;;23.17;38.00
77110;BME280;66062;52.464;16.922;2023-04-10T09:22:11;101565.75;;;26.29;32.38
77110;BME280;66062;52.464;16.922;2023-04-10T09:24:39;101579.75;;;18.97;45.68
77110;BME280;66062;52.464;16.922;2023-04-10T09:27:05;101573.00;;;22.48;38.18
77110;BME280;66062;52.464;16.922;2023-04-10T09:29:42;101567.53;;;24.41;33.58
77110;BME280;66062;52.464;16.922;2023-04-10T09:32:11;101562.31;;;23.17;35.11
77110;BME280;66062;52.464;16.922;2023-04-10T09:34:54;101566.75;;;22.11;40.21
77110;BME280;66062;52.464;16.922;2023-04-10T09:37:20;101548.91;;;25.04;32.79
77110;BME280;66062;52.464;16.922;2023-04-10T09:39:47;101562.13;;;20.57;41.24
77110;BME280;66062;52.464;16.922;2023-04-10T09:42:12;101573.81;;;18.69;46.16
77110;BME280;66062;52.464;16.922;2023-04-10T09:44:39;101559.22;;;20.13;42.59
77110;BME280;66062;52.464;16.922;2023-04-10T09:47:18;101562.31;;;22.25;39.34
77110;BME280;66062;52.464;16.922;2023-04-10T09:49:46;101555.22;;;21.29;40.19
77110;BME280;66062;52.464;16.922;2023-04-10T09:52:23;101549.69;;;21.52;41.42
77110;BME280;66062;52.464;16.922;2023-04-10T09:54:50;101554.22;;;22.32;38.18
77110;BME280;66062;52.464;16.922;2023-04-10T09:57:17;101538.13;;;23.00;37.75
77110;BME280;66062;52.464;16.922;2023-04-10T09:59:48;101531.66;;;24.70;34.00
77110;BME280;66062;52.464;16.922;2023-04-10T10:02:16;101526.72;;;25.45;32.49
77110;BME280;66062;52.464;16.922;2023-04-10T10:04:44;101524.31;;;24.78;33.07
77110;BME280;66062;52.464;16.922;2023-04-10T10:07:13;101517.22;;;26.43;30.14
77110;BME280;66062;52.464;16.922;2023-04-10T10:09:39;101515.59;;;25.46;30.43
77110;BME280;66062;52.464;16.922;2023-04-10T10:12:06;101515.50;;;24.56;33.37
77110;BME280;66062;52.464;16.922;2023-04-10T10:14:48;101511.28;;;24.60;33.46
77110;BME280;66062;52.464;16.922;2023-04-10T10:17:18;101501.50;;;26.32;29.47
77110;BME280;66062;52.464;16.922;2023-04-10T10:20:09;101511.72;;;22.52;37.29
77110;BME280;66062;52.464;16.922;2023-04-10T10:22:36;101506.09;;;22.53;36.38
77110;BME280;66062;52.464;16.922;2023-04-10T10:25:02;101504.66;;;25.46;29.54
77110;BME280;66062;52.464;16.922;2023-04-10T10:27:36;101498.38;;;27.03;26.96
77110;BME280;66062;52.464;16.922;2023-04-10T10:30:02;101501.59;;;26.12;28.48
77110;BME280;66062;52.464;16.922;2023-04-10T10:32:29;101497.47;;;26.03;27.27
77110;BME280;66062;52.464;16.922;2023-04-10T10:34:56;101496.19;;;24.57;30.10
77110;BME280;66062;52.464;16.922;2023-04-10T10:37:21;101496.72;;;24.07;31.86
77110;BME280;66062;52.464;16.922;2023-04-10T10:40:00;101482.56;;;26.80;27.60
77110;BME280;66062;52.464;16.922;2023-04-10T10:45:41;101486.97;;;23.37;34.52
77110;BME280;66062;52.464;16.922;2023-04-10T10:48:11;101475.50;;;24.09;35.39
77110;BME280;66062;52.464;16.922;2023-04-10T10:50:50;101480.84;;;24.63;34.58
77110;BME280;66062;52.464;16.922;2023-04-10T10:53:32;101479.63;;;23.78;36.89
77110;BME280;66062;52.464;16.922;2023-04-10T10:55:57;101473.25;;;24.65;34.58
77110;BME280;66062;52.464;16.922;2023-04-10T11:01:12;101461.09;;;24.67;35.38
77110;BME280;66062;52.464;16.922;2023-04-10T11:03:39;101473.00;;;22.07;38.10
77110;BME280;66062;52.464;16.922;2023-04-10T11:06:09;101472.25;;;22.13;39.33
77110;BME280;66062;52.464;16.922;2023-04-10T11:08:50;101469.78;;;22.18;39.92
77110;BME280;66062;52.464;16.922;2023-04-10T11:11:21;101471.13;;;23.47;37.23
77110;BME280;66062;52.464;16.922;2023-04-10T11:16:41;101450.19;;;24.41;34.10
77110;BME280;66062;52.464;16.922;2023-04-10T11:19:12;101459.75;;;20.14;42.17
77110;BME280;66062;52.464;16.922;2023-04-10T11:22:00;101461.69;;;20.05;43.07
77110;BME280;66062;52.464;16.922;2023-04-10T11:24:27;101462.94;;;18.77;46.93
77110;BME280;66062;52.464;16.922;2023-04-10T11:26:53;101458.63;;;19.54;45.52
77110;BME280;66062;52.464;16.922;2023-04-10T11:31:59;101452.03;;;20.48;42.66
77110;BME280;66062;52.464;16.922;2023-04-10T11:34:25;101448.13;;;20.51;41.90
77110;BME280;66062;52.464;16.922;2023-04-10T11:36:59;101443.09;;;22.07;39.39
77110;BME280;66062;52.464;16.922;2023-04-10T11:39:28;101434.09;;;22.56;38.32
77110;BME280;66062;52.464;16.922;2023-04-10T11:41:53;101430.13;;;22.86;37.34
77110;BME280;66062;52.464;16.922;2023-04-10T11:46:51;101432.44;;;21.70;39.90
77110;BME280;66062;52.464;16.922;2023-04-10T11:49:19;101435.31;;;21.03;40.30
77110;BME280;66062;52.464;16.922;2023-04-10T11:51:46;101427.47;;;21.73;38.92
77110;BME280;66062;52.464;16.922;2023-04-10T11:54:16;101425.78;;;23.33;35.44
77110;BME280;66062;52.464;16.922;2023-04-10T11:56:44;101426.19;;;22.12;37.25
77110;BME280;66062;52.464;16.922;2023-04-10T11:59:10;101418.38;;;22.24;37.66
77110;BME280;66062;52.464;16.922;2023-04-10T12:01:41;101427.75;;;21.79;37.81
77110;BME280;66062;52.464;16.922;2023-04-10T12:04:17;101415.59;;;21.60;38.34
77110;BME280;66062;52.464;16.922;2023-04-10T12:06:44;101416.56;;;22.09;37.05
77110;BME280;66062;52.464;16.922;2023-04-10T12:09:15;101403.91;;;22.51;36.41
77110;BME280;66062;52.464;16.922;2023-04-10T12:12:07;101409.88;;;22.33;38.98
77110;BME280;66062;52.464;16.922;2023-04-10T12:17:00;101392.56;;;23.57;36.01
77110;BME280;66062;52.464;16.922;2023-04-10T12:19:26;101392.03;;;24.41;33.20
77110;BME280;66062;52.464;16.922;2023-04-10T12:21:52;101386.31;;;23.90;34.33
77110;BME280;66062;52.464;16.922;2023-04-10T12:24:40;101389.75;;;20.84;39.56
77110;BME280;66062;52.464;16.922;2023-04-10T12:27:14;101384.38;;;19.72;42.90
77110;BME280;66062;52.464;16.922;2023-04-10T12:29:40;101372.66;;;21.91;39.94
77110;BME280;66062;52.464;16.922;2023-04-10T12:32:07;101384.91;;;21.45;39.25
77110;BME280;66062;52.464;16.922;2023-04-10T12:34:35;101382.75;;;20.45;41.01
77110;BME280;66062;52.464;16.922;2023-04-10T12:37:01;101383.22;;;20.78;40.58
77110;BME280;66062;52.464;16.922;2023-04-10T12:39:27;101375.44;;;20.90;40.27
77110;BME280;66062;52.464;16.922;2023-04-10T12:41:53;101376.41;;;22.67;36.25
77110;BME280;66062;52.464;16.922;2023-04-10T12:44:18;101374.75;;;21.68;39.09
77110;BME280;66062;52.464;16.922;2023-04-10T12:46:45;101375.25;;;21.78;38.29
77110;BME280;66062;52.464;16.922;2023-04-10T12:49:17;101365.03;;;22.01;37.94
77110;BME280;66062;52.464;16.922;2023-04-10T12:51:43;101352.03;;;22.80;36.73
77110;BME280;66062;52.464;16.922;2023-04-10T12:54:10;101353.38;;;23.04;36.47
77110;BME280;66062;52.464;16.922;2023-04-10T12:56:43;101359.22;;;21.26;38.66
77110;BME280;66062;52.464;16.922;2023-04-10T12:59:09;101353.81;;;22.39;35.77
77110;BME280;66062;52.464;16.922;2023-04-10T13:01:37;101350.53;;;23.32;33.94
77110;BME280;66062;52.464;16.922;2023-04-10T13:04:02;101356.72;;;20.95;38.77
77110;BME280;66062;52.464;16.922;2023-04-10T13:06:28;101341.72;;;22.13;35.87
77110;BME280;66062;52.464;16.922;2023-04-10T13:08:53;101344.22;;;18.27;43.12
77110;BME280;66062;52.464;16.922;2023-04-10T13:11:20;101338.19;;;20.99;37.91
77110;BME280;66062;52.464;16.922;2023-04-10T13:13:47;101339.75;;;21.58;36.52